Time;durP1;ratioP1;P1;durP2;ratioP2;P2;SDS_P1;SDS_P2;PMS_P1;PMS_P2;Temp;Humidity;BMP_temperature;BMP_pressure;BME280_temperature;BME280_humidity;BME280_pressure;Samples;Min_cycle;Max_cycle;Signal;HPM_P1;HPM_P2
2022/11/12 00:01:16;;;;;;;30.27;11.10;;;;;;;4.30;100.00;98726.44;5016057;28;22507;-59
2022/11/12 00:03:44;;;;;;;29.77;11.93;;;;;;;4.24;100.00;98729.47;5010909;28;20210;-59
2022/11/12 00:06:12;;;;;;;16.47;8.37;;;;;;;4.20;100.00;98718.38;5014857;28;20638;-58
2022/11/12 00:08:41;;;;;;;10.37;7.73;;;;;;;4.24;100.00;98721.59;4966436;28;20221;-61
2022/11/12 00:11:10;;;;;;;19.03;8.67;;;;;;;4.24;100.00;98716.34;5014087;28;20335;-58
2022/11/12 00:13:38;;;;;;;44.27;12.43;;;;;;;4.22;100.00;98720.88;4986711;28;20780;-59
2022/11/12 00:16:07;;;;;;;14.57;7.60;;;;;;;4.20;100.00;98723.63;4996403;28;20211;-57
2022/11/12 00:18:35;;;;;;;33.03;8.43;;;;;;;4.14;100.00;98716.16;5013731;28;20210;-61
2022/11/12 00:21:03;;;;;;;19.10;7.77;;;;;;;4.08;100.00;98713.94;5013533;28;20226;-60
2022/11/12 00:23:34;;;;;;;20.27;9.07;;;;;;;3.99;100.00;98710.19;4977206;28;20202;-62
2022/11/12 00:26:02;;;;;;;40.53;10.83;;;;;;;4.03;100.00;98710.81;5012277;28;20198;-59
2022/11/12 00:28:32;;;;;;;38.00;11.90;;;;;;;4.01;100.00;98717.94;5008962;28;20391;-62
2022/11/12 00:31:11;;;;;;;25.53;8.23;;;;;;;3.90;100.00;98716.88;4995241;28;20266;-59
2022/11/12 00:33:41;;;;;;;22.67;10.13;;;;;;;3.71;100.00;98712.03;5009920;28;20207;-59
2022/11/12 00:36:10;;;;;;;43.73;12.20;;;;;;;3.67;100.00;98720.19;5014620;28;20383;-61
2022/11/12 00:38:38;;;;;;;29.10;9.87;;;;;;;3.67;100.00;98721.06;5008266;28;20207;-62
2022/11/12 00:41:06;;;;;;;14.10;5.57;;;;;;;3.70;100.00;98722.63;4973718;28;20238;-60
2022/11/12 00:43:36;;;;;;;21.77;10.60;;;;;;;3.61;100.00;98718.84;5010388;28;20204;-60
2022/11/12 00:46:04;;;;;;;77.60;12.80;;;;;;;3.60;100.00;98725.03;4994798;28;20207;-58
2022/11/12 00:48:32;;;;;;;11.80;6.13;;;;;;;3.56;100.00;98715.66;5010487;28;20223;-60
2022/11/12 00:51:02;;;;;;;17.20;6.40;;;;;;;3.53;100.00;98719.34;5013025;28;20230;-59
2022/11/12 00:53:30;;;;;;;38.00;8.93;;;;;;;3.58;100.00;98726.88;5011050;28;20207;-60
2022/11/12 00:56:02;;;;;;;30.33;9.30;;;;;;;3.47;100.00;98717.13;4967924;28;20786;-59
2022/11/12 00:58:31;;;;;;;33.37;9.67;;;;;;;3.45;100.00;98714.59;5008991;28;20347;-59
2022/11/12 01:01:07;;;;;;;21.10;7.60;;;;;;;3.46;100.00;98710.22;5014243;28;21477;-59
2022/11/12 01:03:35;;;;;;;9.30;7.00;;;;;;;3.39;100.00;98714.16;4992657;28;20894;-61
2022/11/12 01:06:04;;;;;;;20.60;5.97;;;;;;;3.41;100.00;98717.50;5013731;28;20384;-59
2022/11/12 01:08:32;;;;;;;15.80;6.10;;;;;;;3.43;100.00;98718.28;5010870;28;20238;-60
2022/11/12 01:11:11;;;;;;;20.57;7.97;;;;;;;3.41;100.00;98705.28;4966561;28;20235;-57
2022/11/12 01:13:41;;;;;;;36.40;10.43;;;;;;;3.44;100.00;98710.31;5009445;28;20210;-62
2022/11/12 01:16:14;;;;;;;9.03;5.80;;;;;;;3.46;100.00;98707.59;5013044;28;20272;-61
2022/11/12 01:18:42;;;;;;;16.33;6.53;;;;;;;3.43;100.00;98697.31;4992421;28;20467;-60
2022/11/12 01:21:11;;;;;;;21.73;6.70;;;;;;;3.37;100.00;98695.94;5013776;28;20207;-61
2022/11/12 01:23:40;;;;;;;5.23;4.50;;;;;;;3.43;100.00;98689.47;5008880;28;20207;-60
2022/11/12 01:26:12;;;;;;;19.33;5.90;;;;;;;3.31;100.00;98693.72;4969739;28;20932;-61
2022/11/12 01:28:41;;;;;;;19.77;6.03;;;;;;;3.29;100.00;98683.31;4994977;28;20227;-62
2022/11/12 01:31:12;;;;;;;63.47;11.17;;;;;;;3.16;100.00;98683.28;4966011;28;20626;-58
2022/11/12 01:33:40;;;;;;;13.23;6.27;;;;;;;3.32;100.00;98684.91;5012263;28;20222;-59
2022/11/12 01:36:09;;;;;;;16.43;8.13;;;;;;;3.35;100.00;98678.63;4989981;28;20237;-58
2022/11/12 01:38:38;;;;;;;44.53;9.20;;;;;;;3.37;100.00;98681.97;5011906;28;20427;-60
2022/11/12 01:41:07;;;;;;;21.37;6.77;;;;;;;3.40;100.00;98687.00;5011584;28;20349;-61
2022/11/12 01:43:36;;;;;;;16.83;8.10;;;;;;;3.33;100.00;98681.34;5013714;28;20207;-59
2022/11/12 01:46:07;;;;;;;29.53;10.07;;;;;;;3.36;100.00;98682.91;4967574;28;20226;-58
2022/11/12 01:48:42;;;;;;;33.90;7.77;;;;;;;3.32;100.00;98675.25;5009840;28;20219;-58
2022/11/12 01:51:13;;;;;;;17.50;6.13;;;;;;;3.32;100.00;98680.50;5013422;28;20202;-57
2022/11/12 01:53:46;;;;;;;34.43;6.90;;;;;;;3.32;100.00;98677.88;4989434;28;20207;-60
2022/11/12 01:56:16;;;;;;;17.17;7.17;;;;;;;3.25;100.00;98679.22;5012513;28;20211;-57
2022/11/12 01:58:45;;;;;;;12.43;5.67;;;;;;;3.22;100.00;98675.97;5011524;28;20238;-63
2022/11/12 02:01:13;;;;;;;18.97;7.60;;;;;;;3.15;100.00;98672.94;4968335;28;20308;-61
2022/11/12 02:03:43;;;;;;;34.83;8.97;;;;;;;3.21;100.00;98676.91;5009141;28;20325;-61
2022/11/12 02:06:13;;;;;;;22.03;8.13;;;;;;;3.14;100.00;98672.06;5011328;28;20719;-60
2022/11/12 02:08:42;;;;;;;46.37;12.73;;;;;;;3.05;100.00;98662.19;4989174;28;20219;-60
2022/11/12 02:11:14;;;;;;;32.63;9.30;;;;;;;3.23;100.00;98669.81;5011673;28;20215;-61
2022/11/12 02:13:57;;;;;;;36.93;6.13;;;;;;;3.25;100.00;98673.16;5011619;28;20214;-61
2022/11/12 02:16:27;;;;;;;17.93;7.40;;;;;;;3.25;100.00;98678.41;4968414;28;20215;-62
2022/11/12 02:18:56;;;;;;;6.87;4.33;;;;;;;3.19;100.00;98674.41;5008343;28;20882;-62
2022/11/12 02:21:27;;;;;;;19.20;6.50;;;;;;;2.98;100.00;98672.22;5011827;28;20325;-62
2022/11/12 02:24:03;;;;;;;15.37;6.63;;;;;;;2.98;100.00;98671.41;4988457;28;20236;-62
2022/11/12 02:26:34;;;;;;;30.90;7.00;;;;;;;3.06;100.00;98670.91;5012249;28;20214;-63
2022/11/12 02:29:03;;;;;;;28.23;6.47;;;;;;;3.12;100.00;98670.50;5010810;28;20462;-62
2022/11/12 02:31:31;;;;;;;12.37;6.10;;;;;;;3.01;100.00;98660.72;4969618;28;20214;-60
2022/11/12 02:33:59;;;;;;;43.37;9.17;;;;;;;2.96;100.00;98662.81;5012927;28;20893;-61
2022/11/12 02:36:29;;;;;;;39.90;7.77;;;;;;;2.94;100.00;98668.13;5016777;28;20548;-61
2022/11/12 02:38:58;;;;;;;42.40;9.30;;;;;;;2.92;100.00;98661.31;4991428;28;21003;-61
2022/11/12 02:41:26;;;;;;;45.33;11.30;;;;;;;2.89;100.00;98657.97;5016933;28;20356;-62
2022/11/12 02:43:54;;;;;;;30.07;7.50;;;;;;;2.84;100.00;98660.06;5013970;28;20778;-62
2022/11/12 02:46:22;;;;;;;23.13;5.80;;;;;;;2.88;100.00;98661.53;5018637;28;20756;-61
2022/11/12 02:48:50;;;;;;;5.23;4.73;;;;;;;2.98;100.00;98655.69;4966677;28;21691;-62
2022/11/12 02:51:18;;;;;;;14.67;5.90;;;;;;;2.94;100.00;98662.06;5017624;28;20257;-60
2022/11/12 02:53:48;;;;;;;5.17;3.70;;;;;;;2.96;100.00;98658.38;4999913;28;20738;-62
2022/11/12 02:56:16;;;;;;;9.77;4.00;;;;;;;2.91;100.00;98660.47;5012279;28;20537;-62
2022/11/12 02:58:45;;;;;;;9.30;5.33;;;;;;;3.02;100.00;98665.03;5016457;28;20214;-62
2022/11/12 03:01:13;;;;;;;18.90;5.50;;;;;;;2.95;100.00;98661.13;5018533;28;20502;-61
2022/11/12 03:03:41;;;;;;;13.57;6.07;;;;;;;2.95;100.00;98668.97;4967586;28;20925;-62
2022/11/12 03:06:09;;;;;;;35.50;7.50;;;;;;;2.95;100.00;98661.94;5017823;28;20321;-61
2022/11/12 03:08:37;;;;;;;9.00;4.43;;;;;;;3.00;100.00;98672.13;5016638;28;20352;-62
2022/11/12 03:11:11;;;;;;;30.00;7.43;;;;;;;2.94;100.00;98669.91;4991142;28;20465;-63
2022/11/12 03:13:39;;;;;;;9.53;5.33;;;;;;;2.94;100.00;98667.31;5018735;28;20610;-61
2022/11/12 03:16:08;;;;;;;74.60;14.17;;;;;;;2.82;100.00;98668.94;5019013;28;20454;-62
2022/11/12 03:18:36;;;;;;;14.13;4.57;;;;;;;2.87;100.00;98669.47;4968702;28;20730;-62
2022/11/12 03:21:05;;;;;;;44.80;7.97;;;;;;;2.92;100.00;98667.38;5015679;28;20420;-62
2022/11/12 03:23:33;;;;;;;18.13;6.07;;;;;;;2.98;100.00;98668.78;5016893;28;20222;-62
2022/11/12 03:26:03;;;;;;;13.83;4.77;;;;;;;2.90;100.00;98664.03;4989734;28;20898;-61
2022/11/12 03:28:32;;;;;;;48.20;9.00;;;;;;;2.88;100.00;98664.16;5017475;28;20269;-61
2022/11/12 03:31:01;;;;;;;42.57;10.37;;;;;;;2.80;100.00;98668.19;5012726;28;20223;-62
2022/11/12 03:33:29;;;;;;;28.33;10.93;;;;;;;2.88;100.00;98668.53;4971746;28;20789;-59
2022/11/12 03:35:58;;;;;;;10.63;5.03;;;;;;;2.89;100.00;98664.97;4985995;28;20710;-61
2022/11/12 03:38:26;;;;;;;20.33;5.77;;;;;;;2.81;100.00;98675.09;4986412;28;20623;-59
2022/11/12 03:44:24;;;;;;;46.33;9.37;;;;;;;2.73;100.00;98673.81;4990175;28;20333;-62
2022/11/12 03:46:52;;;;;;;13.47;5.50;;;;;;;2.71;100.00;98670.47;5017197;28;20216;-62
2022/11/12 03:49:20;;;;;;;11.83;4.47;;;;;;;2.74;100.00;98670.25;5014546;28;20533;-61
2022/11/12 03:51:49;;;;;;;16.50;5.17;;;;;;;2.70;100.00;98675.78;4970430;28;20860;-62
2022/11/12 03:54:17;;;;;;;28.73;5.90;;;;;;;2.75;100.00;98676.31;5011656;28;20638;-62
2022/11/12 03:56:46;;;;;;;13.93;4.17;;;;;;;2.74;100.00;98674.63;5018092;28;20203;-62
2022/11/12 03:59:14;;;;;;;3.67;2.87;;;;;;;2.80;100.00;98668.19;4989578;28;21031;-61
2022/11/12 04:01:43;;;;;;;31.53;6.20;;;;;;;2.83;100.00;98668.00;5018441;28;20199;-62
2022/11/12 04:04:12;;;;;;;3.33;2.93;;;;;;;2.84;100.00;98665.28;5013270;28;20434;-60
2022/11/12 04:09:37;;;;;;;19.13;6.27;;;;;;;2.79;100.00;98666.50;4904182;28;21058;-59
2022/11/12 04:14:47;;;;;;;40.80;8.00;;;;;;;2.77;100.00;98668.38;4904112;28;20202;-59
2022/11/12 04:22:48;;;;;;;15.47;5.07;;;;;;;2.89;100.00;98673.69;4879454;28;20226;-59
2022/11/12 04:28:02;;;;;;;16.23;5.87;;;;;;;2.76;100.00;98667.53;4934111;28;20205;-61
2022/11/12 04:30:29;;;;;;;26.77;7.60;;;;;;;2.66;100.00;98662.06;4906145;28;20317;-60
2022/11/12 04:32:58;;;;;;;26.37;6.20;;;;;;;2.63;100.00;98664.03;4932019;28;20266;-61
2022/11/12 04:35:27;;;;;;;25.53;9.17;;;;;;;2.47;100.00;98665.00;4928485;28;20410;-61
2022/11/12 04:37:56;;;;;;;12.90;5.73;;;;;;;2.39;100.00;98669.84;4883110;28;21457;-62
2022/11/12 04:46:14;;;;;;;80.13;14.20;;;;;;;2.33;100.00;98665.00;4928947;28;20209;-61
2022/11/12 04:48:44;;;;;;;63.10;12.20;;;;;;;2.35;100.00;98665.75;4954098;28;20205;-61
2022/11/12 04:53:54;;;;;;;26.60;6.93;;;;;;;2.34;100.00;98666.69;4907287;28;20286;-61
2022/11/12 04:56:22;;;;;;;45.20;6.07;;;;;;;2.36;100.00;98660.44;4951210;28;20252;-62
2022/11/12 04:58:50;;;;;;;42.10;10.13;;;;;;;2.31;100.00;98671.16;4954280;28;20219;-59
2022/11/12 05:01:18;;;;;;;42.80;7.97;;;;;;;2.24;100.00;98675.09;4926742;28;20216;-62
2022/11/12 05:03:48;;;;;;;22.50;3.60;;;;;;;2.23;100.00;98667.34;4953678;28;20332;-61
2022/11/12 05:08:58;;;;;;;74.17;9.70;;;;;;;2.23;100.00;98676.03;4904136;28;20221;-60
2022/11/12 05:11:26;;;;;;;24.53;5.97;;;;;;;2.17;100.00;98666.78;4950766;28;20509;-60
2022/11/12 05:13:54;;;;;;;9.70;3.33;;;;;;;2.18;100.00;98667.63;4954385;28;20228;-61
2022/11/12 05:16:22;;;;;;;34.13;8.93;;;;;;;2.17;100.00;98672.00;4933651;28;21148;-63
2022/11/12 05:18:52;;;;;;;20.93;7.20;;;;;;;2.12;100.00;98671.44;5008378;28;20203;-63
2022/11/12 05:24:10;;;;;;;25.80;5.10;;;;;;;2.15;100.00;98667.81;4932852;28;20751;-60
2022/11/12 05:26:58;;;;;;;6.43;3.70;;;;;;;2.21;100.00;98672.69;5008741;28;20245;-58
2022/11/12 05:29:27;;;;;;;27.57;5.30;;;;;;;2.29;100.00;98657.34;4978193;28;20858;-62
2022/11/12 05:31:55;;;;;;;19.90;5.20;;;;;;;2.28;100.00;98666.13;4986841;28;20266;-58
2022/11/12 05:34:25;;;;;;;34.03;7.37;;;;;;;2.19;100.00;98653.63;4981384;28;20659;-60
2022/11/12 05:36:53;;;;;;;6.67;4.50;;;;;;;2.21;100.00;98656.97;5001319;28;20354;-58
2022/11/12 05:39:21;;;;;;;37.43;7.50;;;;;;;2.30;100.00;98656.41;4956069;28;21592;-59
2022/11/12 05:41:49;;;;;;;44.57;8.63;;;;;;;2.23;100.00;98662.09;5008745;28;20199;-58
2022/11/12 05:44:37;;;;;;;13.40;6.43;;;;;;;2.25;100.00;98663.69;4952202;28;20307;-59
2022/11/12 05:47:05;;;;;;;25.40;7.00;;;;;;;2.22;100.00;98670.88;4998235;28;20217;-58
2022/11/12 05:49:35;;;;;;;27.50;8.47;;;;;;;2.16;100.00;98654.63;5005939;28;20436;-60
2022/11/12 05:52:03;;;;;;;19.20;4.17;;;;;;;2.23;100.00;98660.34;4985593;28;20587;-60
2022/11/12 05:54:31;;;;;;;8.57;5.10;;;;;;;2.26;100.00;98659.28;4980462;28;20428;-59
2022/11/12 05:56:59;;;;;;;27.93;6.67;;;;;;;2.22;100.00;98653.44;5008684;28;20361;-59
2022/11/12 05:59:28;;;;;;;41.63;7.43;;;;;;;2.26;100.00;98670.63;4913051;28;20400;-61
2022/11/12 06:01:56;;;;;;;11.27;4.67;;;;;;;2.25;100.00;98668.06;5009586;28;20321;-59
2022/11/12 06:04:25;;;;;;;14.47;4.67;;;;;;;2.21;100.00;98671.81;5010730;28;20203;-61
2022/11/12 06:06:54;;;;;;;15.03;5.70;;;;;;;2.17;100.00;98668.56;4988933;28;20218;-60
2022/11/12 06:09:22;;;;;;;37.33;7.90;;;;;;;2.25;100.00;98675.94;4963356;28;21220;-62
2022/11/12 06:11:50;;;;;;;50.40;9.17;;;;;;;2.24;100.00;98677.72;5007798;28;20207;-61
2022/11/12 06:14:19;;;;;;;24.17;4.90;;;;;;;2.20;100.00;98678.84;4968064;28;20791;-64
2022/11/12 06:16:47;;;;;;;15.33;4.93;;;;;;;2.16;100.00;98675.56;4994599;28;20203;-66
2022/11/12 06:19:15;;;;;;;14.13;4.67;;;;;;;2.21;100.00;98675.28;5009728;28;20593;-61
2022/11/12 06:21:43;;;;;;;15.33;6.27;;;;;;;2.30;100.00;98677.34;4988468;28;20206;-62
2022/11/12 06:24:14;;;;;;;19.23;5.87;;;;;;;2.20;100.00;98677.97;5004192;28;20858;-64
2022/11/12 06:26:42;;;;;;;23.37;5.73;;;;;;;2.13;100.00;98682.78;5003721;28;20206;-62
2022/11/12 06:29:10;;;;;;;8.07;5.07;;;;;;;2.23;100.00;98688.25;4961824;28;21294;-63
2022/11/12 06:31:38;;;;;;;21.33;5.97;;;;;;;2.21;100.00;98692.75;5006978;28;20614;-64
2022/11/12 06:34:07;;;;;;;19.30;5.33;;;;;;;2.21;100.00;98692.75;5011736;28;21738;-63
2022/11/12 06:36:35;;;;;;;49.67;8.70;;;;;;;2.25;100.00;98682.00;4987093;28;20237;-60
2022/11/12 06:39:04;;;;;;;13.30;5.60;;;;;;;2.25;100.00;98686.38;5011979;28;20235;-61
2022/11/12 06:41:33;;;;;;;8.03;4.73;;;;;;;2.26;100.00;98688.91;4989960;28;20261;-60
2022/11/12 06:44:04;;;;;;;9.93;4.87;;;;;;;2.34;100.00;98679.75;5011584;28;21031;-63
2022/11/12 06:46:33;;;;;;;20.40;5.30;;;;;;;2.41;100.00;98689.75;4982173;28;20214;-63
2022/11/12 06:49:01;;;;;;;10.90;6.60;;;;;;;2.43;100.00;98694.88;5014347;28;21310;-62
2022/11/12 06:51:29;;;;;;;31.20;5.70;;;;;;;2.50;100.00;98685.72;4987623;28;21990;-61
2022/11/12 06:53:57;;;;;;;17.17;4.70;;;;;;;2.41;100.00;98689.75;5011672;28;20748;-63
2022/11/12 06:56:25;;;;;;;12.77;6.00;;;;;;;2.42;100.00;98682.72;4987174;28;20206;-63
2022/11/12 06:58:55;;;;;;;13.57;6.13;;;;;;;2.47;100.00;98696.41;5010388;28;20269;-66
2022/11/12 07:01:23;;;;;;;7.93;4.90;;;;;;;2.58;100.00;98696.56;4964428;28;20211;-61
2022/11/12 07:03:52;;;;;;;6.50;4.53;;;;;;;2.58;100.00;98701.78;5011253;28;20219;-62
2022/11/12 07:06:20;;;;;;;5.73;4.63;;;;;;;2.64;100.00;98705.78;5008173;28;20203;-63
2022/11/12 07:08:49;;;;;;;32.27;8.13;;;;;;;2.59;100.00;98708.69;4989801;28;20257;-66
2022/11/12 07:11:18;;;;;;;45.13;8.77;;;;;;;2.58;100.00;98701.78;4987031;28;20226;-65
2022/11/12 07:13:47;;;;;;;16.03;6.47;;;;;;;2.66;100.00;98703.09;5009810;28;20207;-63
2022/11/12 07:16:17;;;;;;;36.17;7.70;;;;;;;2.74;100.00;98703.44;4978090;28;20226;-63
2022/11/12 07:18:46;;;;;;;8.30;4.87;;;;;;;2.81;100.00;98701.28;5013001;28;20206;-65
2022/11/12 07:21:16;;;;;;;17.07;6.53;;;;;;;2.90;100.00;98695.44;5014034;28;20207;-67
2022/11/12 07:23:44;;;;;;;17.97;5.87;;;;;;;3.04;100.00;98712.91;4992544;28;20215;-63
2022/11/12 07:26:14;;;;;;;32.47;7.53;;;;;;;3.01;100.00;98711.31;4991907;28;20214;-65
2022/11/12 07:28:43;;;;;;;36.30;10.10;;;;;;;3.05;100.00;98709.34;5012132;28;20336;-64
2022/11/12 07:31:12;;;;;;;81.47;17.67;;;;;;;2.92;100.00;98714.50;4976494;28;20231;-68
2022/11/12 07:33:43;;;;;;;56.30;12.97;;;;;;;2.84;100.00;98720.25;5009430;28;20207;-63
2022/11/12 07:36:12;;;;;;;16.43;7.90;;;;;;;2.89;100.00;98712.94;5013582;28;20237;-63
2022/11/12 07:38:41;;;;;;;32.17;10.20;;;;;;;2.90;100.00;98719.00;4989900;28;20207;-63
2022/11/12 07:41:13;;;;;;;5.87;4.97;;;;;;;2.97;100.00;98720.28;5013963;28;20226;-65
2022/11/12 07:43:42;;;;;;;66.57;14.63;;;;;;;2.78;100.00;98728.47;5011418;28;20199;-61
2022/11/12 07:46:11;;;;;;;21.53;7.17;;;;;;;2.86;100.00;98722.75;4973655;28;20725;-63
2022/11/12 07:48:43;;;;;;;24.23;9.77;;;;;;;2.98;100.00;98713.28;5010509;28;20203;-63
2022/11/12 07:51:14;;;;;;;14.00;6.30;;;;;;;3.09;100.00;98710.00;4977621;28;21537;-63
2022/11/12 07:53:43;;;;;;;15.63;6.50;;;;;;;3.12;100.00;98713.25;4988917;28;20203;-63
2022/11/12 07:56:12;;;;;;;22.90;8.10;;;;;;;3.22;100.00;98716.13;5008315;28;21486;-59
2022/11/12 07:58:40;;;;;;;30.33;7.67;;;;;;;3.30;100.00;98715.63;4990026;28;21496;-65
2022/11/12 08:01:09;;;;;;;41.03;12.10;;;;;;;2.91;100.00;98706.78;5008865;28;20256;-63
2022/11/12 08:03:37;;;;;;;23.63;8.87;;;;;;;3.21;100.00;98713.56;5012358;28;20923;-65
2022/11/12 08:06:08;;;;;;;25.63;9.60;;;;;;;3.32;100.00;98716.34;4986957;28;20287;-62
2022/11/12 08:08:37;;;;;;;16.17;6.90;;;;;;;3.41;100.00;98713.13;5009081;28;20211;-58
2022/11/12 08:11:05;;;;;;;21.67;7.17;;;;;;;3.47;100.00;98714.53;4983646;28;20228;-59
2022/11/12 08:13:33;;;;;;;19.87;7.43;;;;;;;3.51;100.00;98692.41;4987844;28;20210;-66
2022/11/12 08:16:02;;;;;;;24.33;7.00;;;;;;;3.46;100.00;98707.59;4991722;28;20215;-62
2022/11/12 08:18:30;;;;;;;26.47;9.07;;;;;;;3.55;100.00;98706.13;5012244;28;20214;-61
2022/11/12 08:21:02;;;;;;;7.90;4.80;;;;;;;3.52;100.00;98708.94;5011092;28;20219;-73
2022/11/12 08:23:31;;;;;;;67.20;13.87;;;;;;;3.33;100.00;98702.31;4970479;28;20233;-69
2022/11/12 08:26:00;;;;;;;40.60;10.47;;;;;;;3.33;100.00;98702.31;5011455;28;20210;-67
2022/11/12 08:28:29;;;;;;;37.70;10.90;;;;;;;3.23;100.00;98711.72;4984687;28;20218;-67
2022/11/12 08:30:57;;;;;;;29.23;7.93;;;;;;;3.00;100.00;98711.41;4987251;28;22647;-70
2022/11/12 08:33:26;;;;;;;19.80;10.90;;;;;;;3.02;100.00;98709.53;4979359;28;20316;-67
2022/11/12 08:35:54;;;;;;;65.10;12.17;;;;;;;3.10;100.00;98712.50;5009947;28;20358;-69
2022/11/12 08:38:22;;;;;;;31.30;8.80;;;;;;;3.12;100.00;98713.25;4935819;28;20880;-69
2022/11/12 08:40:53;;;;;;;34.10;8.10;;;;;;;3.19;100.00;98717.13;5009499;28;20737;-68
2022/11/12 08:43:21;;;;;;;70.80;18.17;;;;;;;3.11;100.00;98719.41;4985801;28;20225;-69
2022/11/12 08:45:49;;;;;;;96.47;20.03;;;;;;;2.95;100.00;98729.19;4986355;28;20708;-69
2022/11/12 08:48:17;;;;;;;38.63;11.73;;;;;;;2.94;100.00;98727.53;4989170;28;20215;-68
2022/11/12 08:50:46;;;;;;;30.20;11.53;;;;;;;2.99;100.00;98735.94;5007786;28;20229;-69
2022/11/12 08:53:14;;;;;;;56.50;15.60;;;;;;;3.12;100.00;98721.09;4951920;28;21905;-68
2022/11/12 08:55:42;;;;;;;25.87;8.20;;;;;;;3.31;100.00;98728.59;5007329;28;20528;-69
2022/11/12 08:58:13;;;;;;;117.17;20.60;;;;;;;3.29;100.00;98721.81;5002401;28;20214;-68
2022/11/12 09:00:43;;;;;;;37.80;10.73;;;;;;;3.41;100.00;98723.63;4971428;28;20701;-69
2022/11/12 09:03:14;;;;;;;27.73;8.73;;;;;;;3.51;100.00;98726.47;5008430;28;20199;-69
2022/11/12 09:05:42;;;;;;;51.33;20.07;;;;;;;3.57;100.00;98730.44;5009975;28;20210;-69
2022/11/12 09:08:18;;;;;;;51.60;14.07;;;;;;;3.43;100.00;98726.97;4974072;28;20206;-68
2022/11/12 09:10:47;;;;;;;15.50;8.47;;;;;;;3.70;100.00;98731.34;5009297;28;20222;-66
2022/11/12 09:13:17;;;;;;;28.80;9.87;;;;;;;3.93;100.00;98728.94;4982449;28;20210;-66
2022/11/12 09:15:46;;;;;;;12.10;7.47;;;;;;;3.96;100.00;98727.91;4984599;28;20241;-68
2022/11/12 09:18:15;;;;;;;44.13;10.80;;;;;;;4.03;100.00;98729.16;5007093;28;20497;-68
2022/11/12 09:20:44;;;;;;;22.03;9.83;;;;;;;4.13;100.00;98724.13;5009390;28;20223;-68
2022/11/12 09:23:14;;;;;;;36.00;10.40;;;;;;;4.10;100.00;98717.31;4968787;28;20345;-68
2022/11/12 09:25:43;;;;;;;59.00;13.90;;;;;;;3.89;100.00;98720.47;5008573;28;20211;-68
2022/11/12 09:28:14;;;;;;;13.57;7.47;;;;;;;4.00;100.00;98717.13;5006690;28;20245;-68
2022/11/12 09:30:45;;;;;;;16.03;8.17;;;;;;;4.10;100.00;98716.47;4959820;28;20495;-66
2022/11/12 09:33:14;;;;;;;13.63;7.10;;;;;;;4.25;100.00;98714.59;5010862;28;20226;-69
2022/11/12 09:35:42;;;;;;;20.97;9.07;;;;;;;4.20;100.00;98726.25;5015141;28;20203;-67
2022/11/12 09:38:10;;;;;;;28.57;10.40;;;;;;;4.28;100.00;98728.31;5009338;28;20312;-68
2022/11/12 09:41:01;;;;;;;17.77;8.60;;;;;;;4.47;100.00;98724.44;4965869;28;20242;-68
2022/11/12 09:43:32;;;;;;;20.63;9.20;;;;;;;4.42;100.00;98726.53;5013069;28;20303;-68
2022/11/12 09:46:04;;;;;;;9.80;8.47;;;;;;;4.67;100.00;98733.53;4983955;28;20218;-68
2022/11/12 09:48:57;;;;;;;16.87;8.83;;;;;;;4.80;100.00;98725.63;5009581;28;20409;-68
2022/11/12 09:51:27;;;;;;;22.73;10.30;;;;;;;4.90;100.00;98721.38;5012654;28;20203;-69
2022/11/12 09:53:56;;;;;;;27.03;8.43;;;;;;;5.01;100.00;98725.03;5008931;28;20203;-67
2022/11/12 09:56:27;;;;;;;8.70;7.87;;;;;;;5.19;100.00;98715.81;4962346;28;20218;-67
2022/11/12 09:58:56;;;;;;;15.50;9.47;;;;;;;5.21;100.00;98713.91;4955476;28;20443;-67
2022/11/12 10:01:38;;;;;;;7.33;6.40;;;;;;;5.31;100.00;98711.47;5007910;28;20221;-67
2022/11/12 10:04:24;;;;;;;14.73;8.17;;;;;;;5.28;100.00;98710.84;4998853;28;21254;-67
2022/11/12 10:06:57;;;;;;;8.10;6.63;;;;;;;5.44;100.00;98716.63;5011422;28;20299;-68
2022/11/12 10:09:30;;;;;;;7.67;6.57;;;;;;;5.54;100.00;98715.97;4985413;28;20694;-67
2022/11/12 10:18:04;;;;;;;11.60;8.70;;;;;;;5.57;100.00;98702.59;4997236;28;20200;-67
2022/11/12 10:20:37;;;;;;;10.90;9.80;;;;;;;5.69;100.00;98701.66;5043618;28;20855;-67
2022/11/12 10:23:16;;;;;;;10.83;9.83;;;;;;;5.96;100.00;98703.16;5010338;28;21674;-67
2022/11/12 10:25:46;;;;;;;12.27;10.37;;;;;;;6.17;100.00;98699.84;4968765;28;22045;-68
2022/11/12 10:28:25;;;;;;;18.50;11.33;;;;;;;5.99;100.00;98696.81;5010562;28;20929;-70
2022/11/12 10:30:57;;;;;;;10.50;9.50;;;;;;;5.88;100.00;98689.78;4949525;28;20799;-67
2022/11/12 10:33:31;;;;;;;12.67;10.03;;;;;;;5.97;100.00;98683.78;5001173;28;20221;-68
2022/11/12 10:36:15;;;;;;;11.37;9.73;;;;;;;5.79;100.00;98678.97;4972183;28;20203;-67
2022/11/12 10:38:45;;;;;;;12.53;10.03;;;;;;;5.97;100.00;98675.91;4980334;28;20210;-67
2022/11/12 10:41:23;;;;;;;9.43;8.63;;;;;;;5.90;100.00;98666.81;4973823;28;20695;-69
2022/11/12 10:43:58;;;;;;;9.67;8.77;;;;;;;6.15;100.00;98665.78;4992074;28;20206;-68
2022/11/12 10:46:28;;;;;;;17.47;15.10;;;;;;;5.56;100.00;98661.47;4980214;28;24995;-67
2022/11/12 10:49:02;;;;;;;12.77;10.90;;;;;;;6.22;100.00;98664.34;4973805;28;20207;-68
2022/11/12 10:51:32;;;;;;;10.77;9.60;;;;;;;6.22;100.00;98660.84;5013939;28;20202;-68
2022/11/12 10:54:19;;;;;;;9.03;8.33;;;;;;;6.17;100.00;98661.22;4994965;28;20313;-68
2022/11/12 10:56:48;;;;;;;9.13;8.27;;;;;;;6.27;100.00;98661.34;4996356;28;20215;-68
2022/11/12 10:59:22;;;;;;;20.40;8.97;;;;;;;6.24;100.00;98653.69;5002154;28;20238;-67
2022/11/12 11:01:55;;;;;;;8.97;8.27;;;;;;;6.35;100.00;98655.47;4982746;28;20216;-65
2022/11/12 11:04:31;;;;;;;8.13;7.53;;;;;;;6.42;100.00;98647.94;4996239;28;21253;-66
2022/11/12 11:07:03;;;;;;;7.63;6.93;;;;;;;6.47;100.00;98644.00;5013642;28;20198;-66
2022/11/12 11:09:33;;;;;;;17.67;14.63;;;;;;;6.51;100.00;98650.69;4989544;28;20230;-67
2022/11/12 11:12:02;;;;;;;9.37;8.57;;;;;;;6.74;100.00;98641.91;4981712;28;20218;-66
2022/11/12 11:14:32;;;;;;;10.77;9.40;;;;;;;6.47;100.00;98638.72;4969133;28;20248;-68
2022/11/12 11:17:03;;;;;;;9.17;8.47;;;;;;;6.70;100.00;98637.84;4981707;28;22719;-67
2022/11/12 11:19:57;;;;;;;8.77;7.97;;;;;;;6.58;100.00;98629.94;4971898;28;20234;-68
2022/11/12 11:22:31;;;;;;;8.57;7.80;;;;;;;6.87;100.00;98625.94;5013598;28;20203;-68
2022/11/12 11:25:10;;;;;;;9.80;8.90;;;;;;;6.66;100.00;98632.81;4991766;28;21353;-69
2022/11/12 11:27:42;;;;;;;10.87;9.97;;;;;;;6.88;100.00;98623.16;5006346;28;20914;-67
2022/11/12 11:30:13;;;;;;;9.43;8.53;;;;;;;6.59;100.00;98615.81;4988960;28;20230;-69
2022/11/12 11:33:04;;;;;;;10.53;9.43;;;;;;;6.51;100.00;98613.81;4976028;28;20234;-66
2022/11/12 11:35:51;;;;;;;8.77;8.10;;;;;;;6.89;100.00;98616.13;4974604;28;20230;-67
2022/11/12 11:38:44;;;;;;;8.83;7.93;;;;;;;6.86;100.00;98616.38;5013262;28;20215;-66
2022/11/12 11:41:22;;;;;;;9.03;8.33;;;;;;;6.87;100.00;98612.78;5009286;28;20207;-66
2022/11/12 11:43:58;;;;;;;9.20;8.33;;;;;;;7.02;100.00;98608.06;4977942;28;20203;-66
2022/11/12 11:46:41;;;;;;;8.93;8.00;;;;;;;7.07;100.00;98606.69;5011185;28;20268;-67
2022/11/12 11:49:40;;;;;;;8.53;7.73;;;;;;;6.94;100.00;98609.50;4969718;28;20715;-68
2022/11/12 11:52:19;;;;;;;9.07;8.37;;;;;;;6.69;100.00;98591.41;4989526;28;20214;-68
2022/11/12 11:55:03;;;;;;;8.50;7.90;;;;;;;6.77;100.00;98592.41;4992865;28;20665;-68
2022/11/12 11:57:42;;;;;;;10.90;8.87;;;;;;;6.84;100.00;98586.69;4992990;28;20239;-69
2022/11/12 12:00:15;;;;;;;10.80;9.80;;;;;;;6.53;100.00;98589.16;4989317;28;20242;-68
2022/11/12 12:03:15;;;;;;;10.53;9.60;;;;;;;6.97;100.00;98586.47;5013943;28;20208;-68
2022/11/12 12:05:48;;;;;;;10.60;9.70;;;;;;;7.01;100.00;98583.47;4951954;28;20261;-68
2022/11/12 12:08:23;;;;;;;12.87;11.70;;;;;;;6.97;100.00;98582.06;5010786;28;20217;-68
2022/11/12 12:10:59;;;;;;;11.83;10.77;;;;;;;6.95;100.00;98587.44;4993981;28;20230;-68
2022/11/12 12:13:46;;;;;;;13.53;11.20;;;;;;;6.64;100.00;98579.44;5011880;28;20227;-69
2022/11/12 12:16:22;;;;;;;11.40;10.20;;;;;;;7.03;100.00;98588.63;5011508;28;20211;-69
2022/11/12 12:18:53;;;;;;;12.23;11.17;;;;;;;7.02;100.00;98590.41;5013730;28;20202;-68